This is the latest recevied weather packets stored in our database for station/object 9A3XK-13. If no packets are shown the sender has not sent any weather packets the latest 10 day(s).
| Time | Temp. | Humidity | Pressure | Rain* | Wind** | Luminosity | Snow |
|---|---|---|---|---|---|---|---|
| 1777839916 | 15° C | 52% | 1018 hPa | 0 mm | - | 0 W/m² | - |
| 1777839616 | 15.56° C | 52% | 1018 hPa | 0 mm | - | 0 W/m² | - |
| 1777839317 | 15.56° C | 51% | 1018 hPa | 0 mm | - | 0 W/m² | - |
| 1777837521 | 16.11° C | 50% | 1018 hPa | 0 mm | - | 0 W/m² | - |
| 1777836316 | 16.11° C | 49% | 1018 hPa | 0 mm | - | 0 W/m² | - |
| 1777834216 | 17.78° C | 46% | 1017.6 hPa | 0 mm | - | 0 W/m² | - |
| 1777833016 | 18.33° C | 43% | 1017.4 hPa | 0 mm | - | 0 W/m² | - |
| 1777832416 | 18.89° C | 43% | 1017.3 hPa | 0 mm | - | 0 W/m² | - |
| 1777830916 | 20° C | 42% | 1017.2 hPa | 0 mm | - | 5 W/m² | - |
| 1777828516 | 21.67° C | 38% | 1017.1 hPa | 0 mm | - | 22 W/m² | - |
| 1777827016 | 22.78° C | 36% | 1017.1 hPa | 0 mm | - | 107 W/m² | - |
| 1777825816 | 22.78° C | 35% | 1017.1 hPa | 0 mm | - | 171 W/m² | - |
| 1777825216 | 22.78° C | 35% | 1017.1 hPa | 0 mm | - | 206 W/m² | - |
| 1777823416 | 22.78° C | 36% | 1017.1 hPa | 0 mm | - | 311 W/m² | - |
| 1777821616 | 22.78° C | 36% | 1017.2 hPa | 0 mm | - | 402 W/m² | - |
| 1777821016 | 23.33° C | 34% | 1017.3 hPa | 0 mm | - | 431 W/m² | - |
| 1777818616 | 23.33° C | 34% | 1017.6 hPa | 0 mm | - | 546 W/m² | - |
| 1777817415 | 23.33° C | 35% | 1017.7 hPa | 0 mm | - | 598 W/m² | - |
| 1777816516 | 23.33° C | 35% | 1017.9 hPa | 0 mm | - | 638 W/m² | - |
| 1777816216 | 23.33° C | 35% | 1017.9 hPa | 0 mm | - | 649 W/m² | - |
| 1777815616 | 22.78° C | 35% | 1018 hPa | 0 mm | - | 671 W/m² | - |
| 1777814715 | 22.78° C | 35% | 1018.1 hPa | 0 mm | - | 704 W/m² | - |
| 1777810817 | 22.22° C | 37% | 1019 hPa | 0 mm | - | 808 W/m² | - |
| 1777809617 | 21.67° C | 37% | 1019.1 hPa | 0 mm | - | 836 W/m² | - |
| 1777809317 | 21.67° C | 37% | 1019.2 hPa | 0 mm | - | 836 W/m² | - |
* Rain latest hour (hover to see other rain measurements)
** Current wind speed in m/s (hover to see current wind gust speed)